sensor_id;sensor_type;location;lat;lon;timestamp;temperature;humidity
31391;DHT22;18022;45.492;11.548;2024-03-08T00:00:19;9.80;99.90
31391;DHT22;18022;45.492;11.548;2024-03-08T00:02:48;9.80;99.90
31391;DHT22;18022;45.492;11.548;2024-03-08T00:05:16;9.90;99.90
31391;DHT22;18022;45.492;11.548;2024-03-08T00:07:42;9.90;99.90
31391;DHT22;18022;45.492;11.548;2024-03-08T00:10:10;9.80;99.90
31391;DHT22;18022;45.492;11.548;2024-03-08T00:12:39;9.80;99.90
31391;DHT22;18022;45.492;11.548;2024-03-08T00:15:12;9.80;99.90
31391;DHT22;18022;45.492;11.548;2024-03-08T00:17:39;9.80;99.90
31391;DHT22;18022;45.492;11.548;2024-03-08T00:20:06;9.80;99.90
31391;DHT22;18022;45.492;11.548;2024-03-08T00:22:34;9.80;99.90
31391;DHT22;18022;45.492;11.548;2024-03-08T00:25:00;9.80;99.90
31391;DHT22;18022;45.492;11.548;2024-03-08T00:27:25;10.00;99.90
31391;DHT22;18022;45.492;11.548;2024-03-08T00:29:51;10.00;99.90
31391;DHT22;18022;45.492;11.548;2024-03-08T00:32:17;9.90;99.90
31391;DHT22;18022;45.492;11.548;2024-03-08T00:34:42;9.80;99.90
31391;DHT22;18022;45.492;11.548;2024-03-08T00:37:08;9.80;99.90
31391;DHT22;18022;45.492;11.548;2024-03-08T00:39:34;9.90;99.90
31391;DHT22;18022;45.492;11.548;2024-03-08T00:41:59;9.90;99.90
31391;DHT22;18022;45.492;11.548;2024-03-08T00:44:25;9.80;99.90
31391;DHT22;18022;45.492;11.548;2024-03-08T00:46:51;9.80;99.90
31391;DHT22;18022;45.492;11.548;2024-03-08T00:49:17;9.80;99.90
31391;DHT22;18022;45.492;11.548;2024-03-08T00:51:42;9.80;99.90
31391;DHT22;18022;45.492;11.548;2024-03-08T00:54:09;9.80;99.90
31391;DHT22;18022;45.492;11.548;2024-03-08T00:56:34;9.80;99.90
31391;DHT22;18022;45.492;11.548;2024-03-08T00:59:01;9.70;99.90
31391;DHT22;18022;45.492;11.548;2024-03-08T01:01:28;9.70;99.90
31391;DHT22;18022;45.492;11.548;2024-03-08T01:03:54;9.80;99.90
31391;DHT22;18022;45.492;11.548;2024-03-08T01:06:19;9.80;99.90
31391;DHT22;18022;45.492;11.548;2024-03-08T01:08:45;9.80;99.90
31391;DHT22;18022;45.492;11.548;2024-03-08T01:11:13;9.80;99.90
31391;DHT22;18022;45.492;11.548;2024-03-08T01:13:39;9.60;99.90
31391;DHT22;18022;45.492;11.548;2024-03-08T01:16:05;9.40;99.90
31391;DHT22;18022;45.492;11.548;2024-03-08T01:18:31;9.50;99.90
31391;DHT22;18022;45.492;11.548;2024-03-08T01:20:56;9.50;99.90
31391;DHT22;18022;45.492;11.548;2024-03-08T01:23:22;9.60;99.90
31391;DHT22;18022;45.492;11.548;2024-03-08T01:25:48;9.60;99.90
31391;DHT22;18022;45.492;11.548;2024-03-08T01:28:17;9.60;99.90
31391;DHT22;18022;45.492;11.548;2024-03-08T01:30:43;9.60;99.90
31391;DHT22;18022;45.492;11.548;2024-03-08T01:33:08;9.60;99.90
31391;DHT22;18022;45.492;11.548;2024-03-08T01:35:34;9.50;99.90
31391;DHT22;18022;45.492;11.548;2024-03-08T01:37:59;9.50;99.90
31391;DHT22;18022;45.492;11.548;2024-03-08T01:40:25;9.60;99.90
31391;DHT22;18022;45.492;11.548;2024-03-08T01:42:51;9.60;99.90
31391;DHT22;18022;45.492;11.548;2024-03-08T01:45:16;9.60;99.90
31391;DHT22;18022;45.492;11.548;2024-03-08T01:47:42;9.60;99.90
31391;DHT22;18022;45.492;11.548;2024-03-08T01:50:08;9.60;99.90
31391;DHT22;18022;45.492;11.548;2024-03-08T01:52:35;9.50;99.90
31391;DHT22;18022;45.492;11.548;2024-03-08T01:55:02;9.50;99.90
31391;DHT22;18022;45.492;11.548;2024-03-08T01:57:31;9.40;99.90
31391;DHT22;18022;45.492;11.548;2024-03-08T01:59:59;9.40;99.90
31391;DHT22;18022;45.492;11.548;2024-03-08T02:02:31;9.40;99.90
31391;DHT22;18022;45.492;11.548;2024-03-08T02:04:57;9.50;99.90
31391;DHT22;18022;45.492;11.548;2024-03-08T02:07:23;9.50;99.90
31391;DHT22;18022;45.492;11.548;2024-03-08T02:09:49;9.50;99.90
31391;DHT22;18022;45.492;11.548;2024-03-08T02:12:14;9.50;99.90
31391;DHT22;18022;45.492;11.548;2024-03-08T02:14:40;9.50;99.90
31391;DHT22;18022;45.492;11.548;2024-03-08T02:17:06;9.60;99.90
31391;DHT22;18022;45.492;11.548;2024-03-08T02:19:31;9.60;99.90
31391;DHT22;18022;45.492;11.548;2024-03-08T02:21:58;9.50;99.90
31391;DHT22;18022;45.492;11.548;2024-03-08T02:24:24;9.50;99.90
31391;DHT22;18022;45.492;11.548;2024-03-08T02:26:51;9.50;99.90
31391;DHT22;18022;45.492;11.548;2024-03-08T02:29:16;9.40;99.90
31391;DHT22;18022;45.492;11.548;2024-03-08T02:31:42;9.40;99.90
31391;DHT22;18022;45.492;11.548;2024-03-08T02:34:08;9.50;99.90
31391;DHT22;18022;45.492;11.548;2024-03-08T02:36:35;9.50;99.90
31391;DHT22;18022;45.492;11.548;2024-03-08T02:39:04;9.60;99.90
31391;DHT22;18022;45.492;11.548;2024-03-08T02:41:31;9.50;99.90
31391;DHT22;18022;45.492;11.548;2024-03-08T02:43:56;9.50;99.90
31391;DHT22;18022;45.492;11.548;2024-03-08T02:46:22;9.50;99.90
31391;DHT22;18022;45.492;11.548;2024-03-08T02:48:48;9.50;99.90
31391;DHT22;18022;45.492;11.548;2024-03-08T02:51:14;9.50;99.90
31391;DHT22;18022;45.492;11.548;2024-03-08T02:53:41;9.50;99.90
31391;DHT22;18022;45.492;11.548;2024-03-08T02:56:08;9.50;99.90
31391;DHT22;18022;45.492;11.548;2024-03-08T02:58:38;9.50;99.90
31391;DHT22;18022;45.492;11.548;2024-03-08T03:01:04;9.50;99.90
31391;DHT22;18022;45.492;11.548;2024-03-08T03:03:29;9.40;99.90
31391;DHT22;18022;45.492;11.548;2024-03-08T03:05:55;9.30;99.90
31391;DHT22;18022;45.492;11.548;2024-03-08T03:08:21;9.30;99.90
31391;DHT22;18022;45.492;11.548;2024-03-08T03:10:47;9.40;99.90
31391;DHT22;18022;45.492;11.548;2024-03-08T03:13:13;9.50;99.90
31391;DHT22;18022;45.492;11.548;2024-03-08T03:15:40;9.50;99.90
31391;DHT22;18022;45.492;11.548;2024-03-08T03:18:07;9.50;99.90
31391;DHT22;18022;45.492;11.548;2024-03-08T03:20:33;9.50;99.90
31391;DHT22;18022;45.492;11.548;2024-03-08T03:23:02;9.30;99.90
31391;DHT22;18022;45.492;11.548;2024-03-08T03:25:28;9.20;99.90
31391;DHT22;18022;45.492;11.548;2024-03-08T03:27:59;9.20;99.90
31391;DHT22;18022;45.492;11.548;2024-03-08T03:30:25;9.40;99.90
31391;DHT22;18022;45.492;11.548;2024-03-08T03:32:52;9.10;99.90
31391;DHT22;18022;45.492;11.548;2024-03-08T03:35:18;9.50;99.90
31391;DHT22;18022;45.492;11.548;2024-03-08T03:37:46;9.40;99.90
31391;DHT22;18022;45.492;11.548;2024-03-08T03:40:29;9.40;99.90
31391;DHT22;18022;45.492;11.548;2024-03-08T03:42:56;9.40;99.90
31391;DHT22;18022;45.492;11.548;2024-03-08T03:45:25;9.40;99.90
31391;DHT22;18022;45.492;11.548;2024-03-08T03:47:51;9.40;99.90
31391;DHT22;18022;45.492;11.548;2024-03-08T03:50:20;9.30;99.90
31391;DHT22;18022;45.492;11.548;2024-03-08T03:52:46;9.30;99.90
31391;DHT22;18022;45.492;11.548;2024-03-08T03:55:12;9.30;99.90
31391;DHT22;18022;45.492;11.548;2024-03-08T03:57:39;9.20;99.90
31391;DHT22;18022;45.492;11.548;2024-03-08T04:00:05;9.20;99.90
31391;DHT22;18022;45.492;11.548;2024-03-08T04:02:31;9.30;99.90
31391;DHT22;18022;45.492;11.548;2024-03-08T04:04:57;9.30;99.90
31391;DHT22;18022;45.492;11.548;2024-03-08T04:07:23;9.00;99.90
31391;DHT22;18022;45.492;11.548;2024-03-08T04:09:48;9.00;99.90
31391;DHT22;18022;45.492;11.548;2024-03-08T04:12:14;8.90;99.90
31391;DHT22;18022;45.492;11.548;2024-03-08T04:14:41;8.90;99.90
31391;DHT22;18022;45.492;11.548;2024-03-08T04:17:07;8.70;99.90
31391;DHT22;18022;45.492;11.548;2024-03-08T04:19:34;8.70;99.90
31391;DHT22;18022;45.492;11.548;2024-03-08T04:22:01;8.80;99.90
31391;DHT22;18022;45.492;11.548;2024-03-08T04:24:27;8.70;99.90
31391;DHT22;18022;45.492;11.548;2024-03-08T04:26:53;8.70;99.90
31391;DHT22;18022;45.492;11.548;2024-03-08T04:29:19;8.70;99.90
31391;DHT22;18022;45.492;11.548;2024-03-08T04:31:44;8.70;99.90
31391;DHT22;18022;45.492;11.548;2024-03-08T04:34:10;8.60;99.90
31391;DHT22;18022;45.492;11.548;2024-03-08T04:36:36;8.80;99.90
31391;DHT22;18022;45.492;11.548;2024-03-08T04:39:02;8.90;99.90
31391;DHT22;18022;45.492;11.548;2024-03-08T04:41:28;8.90;99.90
31391;DHT22;18022;45.492;11.548;2024-03-08T04:43:56;9.00;99.90
31391;DHT22;18022;45.492;11.548;2024-03-08T04:46:23;8.90;99.90
31391;DHT22;18022;45.492;11.548;2024-03-08T04:48:49;8.80;99.90
31391;DHT22;18022;45.492;11.548;2024-03-08T04:51:14;8.60;99.90
31391;DHT22;18022;45.492;11.548;2024-03-08T04:53:41;8.60;99.90
31391;DHT22;18022;45.492;11.548;2024-03-08T04:56:07;8.60;99.90
31391;DHT22;18022;45.492;11.548;2024-03-08T04:58:36;8.60;99.90
31391;DHT22;18022;45.492;11.548;2024-03-08T05:01:02;8.60;99.90
31391;DHT22;18022;45.492;11.548;2024-03-08T05:03:28;8.60;99.90
31391;DHT22;18022;45.492;11.548;2024-03-08T05:05:55;8.50;99.90
31391;DHT22;18022;45.492;11.548;2024-03-08T05:08:21;8.50;99.90
31391;DHT22;18022;45.492;11.548;2024-03-08T05:10:47;8.50;99.90
31391;DHT22;18022;45.492;11.548;2024-03-08T05:13:12;8.40;99.90
31391;DHT22;18022;45.492;11.548;2024-03-08T05:15:38;8.40;99.90
31391;DHT22;18022;45.492;11.548;2024-03-08T05:18:05;8.50;99.90
31391;DHT22;18022;45.492;11.548;2024-03-08T05:20:30;8.50;99.90
31391;DHT22;18022;45.492;11.548;2024-03-08T05:22:56;8.50;99.90
31391;DHT22;18022;45.492;11.548;2024-03-08T05:25:25;8.40;99.90
31391;DHT22;18022;45.492;11.548;2024-03-08T05:27:52;8.30;99.90
31391;DHT22;18022;45.492;11.548;2024-03-08T05:30:17;8.30;99.90
31391;DHT22;18022;45.492;11.548;2024-03-08T05:32:43;8.20;99.90
31391;DHT22;18022;45.492;11.548;2024-03-08T05:35:11;8.20;99.90
31391;DHT22;18022;45.492;11.548;2024-03-08T05:37:38;8.20;99.90
31391;DHT22;18022;45.492;11.548;2024-03-08T05:40:05;8.20;99.90
31391;DHT22;18022;45.492;11.548;2024-03-08T05:42:35;8.20;99.90
31391;DHT22;18022;45.492;11.548;2024-03-08T05:45:02;8.20;99.90
31391;DHT22;18022;45.492;11.548;2024-03-08T05:47:28;8.20;99.90
31391;DHT22;18022;45.492;11.548;2024-03-08T05:49:54;8.20;99.90
31391;DHT22;18022;45.492;11.548;2024-03-08T05:52:20;8.10;99.90
31391;DHT22;18022;45.492;11.548;2024-03-08T05:54:45;8.20;99.90
31391;DHT22;18022;45.492;11.548;2024-03-08T05:57:12;8.20;99.90
31391;DHT22;18022;45.492;11.548;2024-03-08T05:59:39;8.20;99.90
31391;DHT22;18022;45.492;11.548;2024-03-08T06:02:05;8.30;99.90
31391;DHT22;18022;45.492;11.548;2024-03-08T06:04:31;8.20;99.90
31391;DHT22;18022;45.492;11.548;2024-03-08T06:06:56;8.20;99.90
31391;DHT22;18022;45.492;11.548;2024-03-08T06:09:24;8.30;99.90
31391;DHT22;18022;45.492;11.548;2024-03-08T06:11:50;8.30;99.90
31391;DHT22;18022;45.492;11.548;2024-03-08T06:14:16;8.30;99.90
31391;DHT22;18022;45.492;11.548;2024-03-08T06:16:47;8.40;99.90
31391;DHT22;18022;45.492;11.548;2024-03-08T06:19:13;8.40;99.90
31391;DHT22;18022;45.492;11.548;2024-03-08T06:21:39;8.30;99.90
31391;DHT22;18022;45.492;11.548;2024-03-08T06:24:05;8.40;99.90
31391;DHT22;18022;45.492;11.548;2024-03-08T06:26:31;8.40;99.90
31391;DHT22;18022;45.492;11.548;2024-03-08T06:28:57;8.20;99.90
31391;DHT22;18022;45.492;11.548;2024-03-08T06:31:23;8.30;99.90
31391;DHT22;18022;45.492;11.548;2024-03-08T06:33:49;8.30;99.90
31391;DHT22;18022;45.492;11.548;2024-03-08T06:36:18;8.40;99.90
31391;DHT22;18022;45.492;11.548;2024-03-08T06:38:45;8.50;99.90
31391;DHT22;18022;45.492;11.548;2024-03-08T06:41:11;8.40;99.90
31391;DHT22;18022;45.492;11.548;2024-03-08T06:43:47;8.60;99.90
31391;DHT22;18022;45.492;11.548;2024-03-08T06:46:17;8.60;99.90
31391;DHT22;18022;45.492;11.548;2024-03-08T06:48:43;8.60;99.90
31391;DHT22;18022;45.492;11.548;2024-03-08T06:51:08;8.70;99.90
31391;DHT22;18022;45.492;11.548;2024-03-08T06:53:36;8.60;99.90
31391;DHT22;18022;45.492;11.548;2024-03-08T06:56:02;8.60;99.90
31391;DHT22;18022;45.492;11.548;2024-03-08T06:58:28;8.60;99.90
31391;DHT22;18022;45.492;11.548;2024-03-08T07:00:54;8.60;99.90
31391;DHT22;18022;45.492;11.548;2024-03-08T07:03:24;8.60;99.90
31391;DHT22;18022;45.492;11.548;2024-03-08T07:05:49;8.70;99.90
31391;DHT22;18022;45.492;11.548;2024-03-08T07:08:15;8.70;99.90
31391;DHT22;18022;45.492;11.548;2024-03-08T07:10:41;8.70;99.90
31391;DHT22;18022;45.492;11.548;2024-03-08T07:13:08;8.70;99.90
31391;DHT22;18022;45.492;11.548;2024-03-08T07:15:33;8.70;99.90
31391;DHT22;18022;45.492;11.548;2024-03-08T07:18:00;8.80;99.90
31391;DHT22;18022;45.492;11.548;2024-03-08T07:20:26;8.70;99.90
31391;DHT22;18022;45.492;11.548;2024-03-08T07:22:52;8.60;99.90
31391;DHT22;18022;45.492;11.548;2024-03-08T07:25:18;8.60;99.90
31391;DHT22;18022;45.492;11.548;2024-03-08T07:27:51;8.60;99.90
31391;DHT22;18022;45.492;11.548;2024-03-08T07:30:17;8.70;99.90
31391;DHT22;18022;45.492;11.548;2024-03-08T07:33:02;8.70;99.90
31391;DHT22;18022;45.492;11.548;2024-03-08T07:35:28;8.60;99.90
31391;DHT22;18022;45.492;11.548;2024-03-08T07:37:54;8.70;99.90
31391;DHT22;18022;45.492;11.548;2024-03-08T07:40:25;8.60;99.90
31391;DHT22;18022;45.492;11.548;2024-03-08T07:42:51;8.60;99.90
31391;DHT22;18022;45.492;11.548;2024-03-08T07:45:17;8.60;99.90
31391;DHT22;18022;45.492;11.548;2024-03-08T07:47:43;8.70;99.90
31391;DHT22;18022;45.492;11.548;2024-03-08T07:50:09;8.70;99.90
31391;DHT22;18022;45.492;11.548;2024-03-08T07:52:35;8.80;99.90
31391;DHT22;18022;45.492;11.548;2024-03-08T07:55:02;8.80;99.90
31391;DHT22;18022;45.492;11.548;2024-03-08T07:57:29;8.80;99.90
31391;DHT22;18022;45.492;11.548;2024-03-08T07:59:55;8.80;99.90
31391;DHT22;18022;45.492;11.548;2024-03-08T08:02:21;8.70;99.90
31391;DHT22;18022;45.492;11.548;2024-03-08T08:04:47;8.80;99.90
31391;DHT22;18022;45.492;11.548;2024-03-08T08:07:12;8.80;99.90
31391;DHT22;18022;45.492;11.548;2024-03-08T08:09:40;8.80;99.90
31391;DHT22;18022;45.492;11.548;2024-03-08T08:12:06;8.70;99.90
31391;DHT22;18022;45.492;11.548;2024-03-08T08:14:32;8.80;99.90
31391;DHT22;18022;45.492;11.548;2024-03-08T08:16:58;8.60;99.90
31391;DHT22;18022;45.492;11.548;2024-03-08T08:19:28;8.60;99.90
31391;DHT22;18022;45.492;11.548;2024-03-08T08:21:54;8.50;99.90
31391;DHT22;18022;45.492;11.548;2024-03-08T08:24:20;8.50;99.90
31391;DHT22;18022;45.492;11.548;2024-03-08T08:26:47;8.50;99.90
31391;DHT22;18022;45.492;11.548;2024-03-08T08:29:13;8.70;99.90
31391;DHT22;18022;45.492;11.548;2024-03-08T08:31:39;8.70;99.90
31391;DHT22;18022;45.492;11.548;2024-03-08T08:34:04;8.70;99.90
31391;DHT22;18022;45.492;11.548;2024-03-08T08:36:31;8.70;99.90
31391;DHT22;18022;45.492;11.548;2024-03-08T08:38:57;8.60;99.90
31391;DHT22;18022;45.492;11.548;2024-03-08T08:41:25;8.60;99.90
31391;DHT22;18022;45.492;11.548;2024-03-08T08:43:51;8.60;99.90
31391;DHT22;18022;45.492;11.548;2024-03-08T08:46:19;8.50;99.90
31391;DHT22;18022;45.492;11.548;2024-03-08T08:48:46;8.60;99.90
31391;DHT22;18022;45.492;11.548;2024-03-08T08:51:12;8.60;99.90
31391;DHT22;18022;45.492;11.548;2024-03-08T08:53:41;8.50;99.90
31391;DHT22;18022;45.492;11.548;2024-03-08T08:56:08;8.60;99.90
31391;DHT22;18022;45.492;11.548;2024-03-08T08:58:34;8.50;99.90
31391;DHT22;18022;45.492;11.548;2024-03-08T09:01:00;8.40;99.90
31391;DHT22;18022;45.492;11.548;2024-03-08T09:03:27;8.40;99.90
31391;DHT22;18022;45.492;11.548;2024-03-08T09:05:53;8.40;99.90
31391;DHT22;18022;45.492;11.548;2024-03-08T09:08:19;8.50;99.90
31391;DHT22;18022;45.492;11.548;2024-03-08T09:10:45;8.50;99.90
31391;DHT22;18022;45.492;11.548;2024-03-08T09:13:12;8.40;99.90
31391;DHT22;18022;45.492;11.548;2024-03-08T09:15:38;8.40;99.90
31391;DHT22;18022;45.492;11.548;2024-03-08T09:18:06;8.50;99.90
31391;DHT22;18022;45.492;11.548;2024-03-08T09:20:32;8.50;99.90
31391;DHT22;18022;45.492;11.548;2024-03-08T09:22:57;8.40;99.90
31391;DHT22;18022;45.492;11.548;2024-03-08T09:25:23;8.40;99.90
31391;DHT22;18022;45.492;11.548;2024-03-08T09:27:49;8.30;99.90
31391;DHT22;18022;45.492;11.548;2024-03-08T09:30:15;8.50;99.90
31391;DHT22;18022;45.492;11.548;2024-03-08T09:32:41;8.40;99.90
31391;DHT22;18022;45.492;11.548;2024-03-08T09:35:07;8.50;99.90
31391;DHT22;18022;45.492;11.548;2024-03-08T09:37:33;8.40;99.90
31391;DHT22;18022;45.492;11.548;2024-03-08T09:40:03;8.40;99.90
31391;DHT22;18022;45.492;11.548;2024-03-08T09:42:37;8.40;99.90
31391;DHT22;18022;45.492;11.548;2024-03-08T09:45:09;8.50;99.90
31391;DHT22;18022;45.492;11.548;2024-03-08T09:47:44;8.60;99.90
31391;DHT22;18022;45.492;11.548;2024-03-08T09:50:11;8.50;99.90
31391;DHT22;18022;45.492;11.548;2024-03-08T09:52:41;8.70;99.90
31391;DHT22;18022;45.492;11.548;2024-03-08T09:55:10;8.70;99.90
31391;DHT22;18022;45.492;11.548;2024-03-08T09:57:39;8.80;99.90
31391;DHT22;18022;45.492;11.548;2024-03-08T10:00:06;8.80;99.90
31391;DHT22;18022;45.492;11.548;2024-03-08T10:02:47;8.80;99.90
31391;DHT22;18022;45.492;11.548;2024-03-08T10:05:14;8.80;99.90
31391;DHT22;18022;45.492;11.548;2024-03-08T10:07:39;8.80;99.90
31391;DHT22;18022;45.492;11.548;2024-03-08T10:10:06;8.70;99.90
31391;DHT22;18022;45.492;11.548;2024-03-08T10:12:36;8.80;99.90
31391;DHT22;18022;45.492;11.548;2024-03-08T10:15:02;8.80;99.90
31391;DHT22;18022;45.492;11.548;2024-03-08T10:17:27;8.80;99.90
31391;DHT22;18022;45.492;11.548;2024-03-08T10:19:57;8.80;99.90
31391;DHT22;18022;45.492;11.548;2024-03-08T10:22:25;8.60;99.90
31391;DHT22;18022;45.492;11.548;2024-03-08T10:24:51;8.70;99.90
31391;DHT22;18022;45.492;11.548;2024-03-08T10:27:17;8.60;99.90
31391;DHT22;18022;45.492;11.548;2024-03-08T10:29:47;8.70;99.90
31391;DHT22;18022;45.492;11.548;2024-03-08T10:32:13;8.80;99.90
31391;DHT22;18022;45.492;11.548;2024-03-08T10:34:39;8.80;99.90
31391;DHT22;18022;45.492;11.548;2024-03-08T10:37:05;8.70;99.90
31391;DHT22;18022;45.492;11.548;2024-03-08T10:39:36;8.80;99.90
31391;DHT22;18022;45.492;11.548;2024-03-08T10:42:06;8.70;99.90
31391;DHT22;18022;45.492;11.548;2024-03-08T10:44:49;8.60;99.90
31391;DHT22;18022;45.492;11.548;2024-03-08T10:47:26;8.60;99.90
31391;DHT22;18022;45.492;11.548;2024-03-08T10:50:10;8.50;99.90
31391;DHT22;18022;45.492;11.548;2024-03-08T10:52:40;8.50;99.90
31391;DHT22;18022;45.492;11.548;2024-03-08T10:55:07;8.40;99.90
31391;DHT22;18022;45.492;11.548;2024-03-08T10:57:38;8.40;99.90
31391;DHT22;18022;45.492;11.548;2024-03-08T11:00:06;8.30;99.90
31391;DHT22;18022;45.492;11.548;2024-03-08T11:02:35;8.40;99.90
31391;DHT22;18022;45.492;11.548;2024-03-08T11:05:03;8.30;99.90
31391;DHT22;18022;45.492;11.548;2024-03-08T11:07:33;8.30;99.90
31391;DHT22;18022;45.492;11.548;2024-03-08T11:10:03;8.40;99.90
31391;DHT22;18022;45.492;11.548;2024-03-08T11:12:40;8.50;99.90
31391;DHT22;18022;45.492;11.548;2024-03-08T11:15:12;8.30;99.90
31391;DHT22;18022;45.492;11.548;2024-03-08T11:17:48;8.30;99.90
31391;DHT22;18022;45.492;11.548;2024-03-08T11:20:16;8.30;99.90
31391;DHT22;18022;45.492;11.548;2024-03-08T11:22:47;8.30;99.90
31391;DHT22;18022;45.492;11.548;2024-03-08T11:33:16;8.10;99.90
31391;DHT22;18022;45.492;11.548;2024-03-08T11:35:43;8.10;99.90
31391;DHT22;18022;45.492;11.548;2024-03-08T11:38:11;8.10;99.90
31391;DHT22;18022;45.492;11.548;2024-03-08T11:40:37;8.10;99.90
31391;DHT22;18022;45.492;11.548;2024-03-08T11:43:03;8.20;99.90
31391;DHT22;18022;45.492;11.548;2024-03-08T11:45:33;8.30;99.90
31391;DHT22;18022;45.492;11.548;2024-03-08T11:48:04;8.30;99.90
31391;DHT22;18022;45.492;11.548;2024-03-08T11:50:31;8.20;99.90
31391;DHT22;18022;45.492;11.548;2024-03-08T11:53:05;8.20;99.90
31391;DHT22;18022;45.492;11.548;2024-03-08T11:55:34;8.30;99.90
31391;DHT22;18022;45.492;11.548;2024-03-08T11:58:05;8.30;99.90
31391;DHT22;18022;45.492;11.548;2024-03-08T12:00:34;8.40;99.90
31391;DHT22;18022;45.492;11.548;2024-03-08T12:03:07;8.40;99.90
31391;DHT22;18022;45.492;11.548;2024-03-08T12:05:33;8.30;99.90
31391;DHT22;18022;45.492;11.548;2024-03-08T12:08:00;8.30;99.90
31391;DHT22;18022;45.492;11.548;2024-03-08T12:10:26;8.40;99.90
31391;DHT22;18022;45.492;11.548;2024-03-08T12:12:53;8.40;99.90
31391;DHT22;18022;45.492;11.548;2024-03-08T12:15:20;8.40;99.90
31391;DHT22;18022;45.492;11.548;2024-03-08T12:17:48;8.30;99.90
31391;DHT22;18022;45.492;11.548;2024-03-08T12:20:25;8.30;99.90
31391;DHT22;18022;45.492;11.548;2024-03-08T12:22:52;8.40;99.90
31391;DHT22;18022;45.492;11.548;2024-03-08T12:25:19;8.50;99.90
31391;DHT22;18022;45.492;11.548;2024-03-08T12:27:46;8.50;99.90
31391;DHT22;18022;45.492;11.548;2024-03-08T12:30:25;8.50;99.90
31391;DHT22;18022;45.492;11.548;2024-03-08T12:33:01;8.60;99.90
31391;DHT22;18022;45.492;11.548;2024-03-08T12:35:29;8.50;99.90
31391;DHT22;18022;45.492;11.548;2024-03-08T12:37:56;8.60;99.90
31391;DHT22;18022;45.492;11.548;2024-03-08T12:40:40;8.60;99.90
31391;DHT22;18022;45.492;11.548;2024-03-08T12:43:07;8.50;99.90
31391;DHT22;18022;45.492;11.548;2024-03-08T12:45:33;8.60;99.90
31391;DHT22;18022;45.492;11.548;2024-03-08T12:47:58;8.60;99.90
31391;DHT22;18022;45.492;11.548;2024-03-08T12:50:25;8.60;99.90
31391;DHT22;18022;45.492;11.548;2024-03-08T12:52:51;8.70;99.90
31391;DHT22;18022;45.492;11.548;2024-03-08T12:55:18;8.70;99.90
31391;DHT22;18022;45.492;11.548;2024-03-08T12:57:44;8.90;99.90
31391;DHT22;18022;45.492;11.548;2024-03-08T13:00:11;8.80;99.90
31391;DHT22;18022;45.492;11.548;2024-03-08T13:02:45;8.80;99.90
31391;DHT22;18022;45.492;11.548;2024-03-08T13:05:11;8.80;99.90
31391;DHT22;18022;45.492;11.548;2024-03-08T13:07:40;8.70;99.90
31391;DHT22;18022;45.492;11.548;2024-03-08T13:10:06;8.60;99.90
31391;DHT22;18022;45.492;11.548;2024-03-08T13:12:32;8.60;99.90
31391;DHT22;18022;45.492;11.548;2024-03-08T13:15:00;8.70;99.90
31391;DHT22;18022;45.492;11.548;2024-03-08T13:17:25;8.50;99.90
31391;DHT22;18022;45.492;11.548;2024-03-08T13:19:52;8.60;99.90
31391;DHT22;18022;45.492;11.548;2024-03-08T13:22:22;8.60;99.90
31391;DHT22;18022;45.492;11.548;2024-03-08T13:24:50;8.70;99.90
31391;DHT22;18022;45.492;11.548;2024-03-08T13:27:17;8.70;99.90
31391;DHT22;18022;45.492;11.548;2024-03-08T13:29:48;8.70;99.90
31391;DHT22;18022;45.492;11.548;2024-03-08T13:32:15;8.60;99.90
31391;DHT22;18022;45.492;11.548;2024-03-08T13:34:42;8.70;99.90
31391;DHT22;18022;45.492;11.548;2024-03-08T13:37:08;8.60;99.90
31391;DHT22;18022;45.492;11.548;2024-03-08T13:39:36;8.70;99.90
31391;DHT22;18022;45.492;11.548;2024-03-08T13:42:12;8.60;99.90
31391;DHT22;18022;45.492;11.548;2024-03-08T13:44:39;8.60;99.90
31391;DHT22;18022;45.492;11.548;2024-03-08T13:47:06;8.70;99.90
31391;DHT22;18022;45.492;11.548;2024-03-08T13:49:32;8.70;99.90
31391;DHT22;18022;45.492;11.548;2024-03-08T13:51:58;8.80;99.90
31391;DHT22;18022;45.492;11.548;2024-03-08T13:54:26;8.70;99.90
31391;DHT22;18022;45.492;11.548;2024-03-08T13:56:53;8.70;99.90
31391;DHT22;18022;45.492;11.548;2024-03-08T13:59:20;8.80;99.90
31391;DHT22;18022;45.492;11.548;2024-03-08T14:01:48;8.70;99.90
31391;DHT22;18022;45.492;11.548;2024-03-08T14:04:17;8.70;99.90
31391;DHT22;18022;45.492;11.548;2024-03-08T14:06:43;8.70;99.90
31391;DHT22;18022;45.492;11.548;2024-03-08T14:09:11;8.70;99.90
31391;DHT22;18022;45.492;11.548;2024-03-08T14:11:42;8.70;99.90
31391;DHT22;18022;45.492;11.548;2024-03-08T14:14:12;8.80;99.90
31391;DHT22;18022;45.492;11.548;2024-03-08T14:16:40;8.80;99.90
31391;DHT22;18022;45.492;11.548;2024-03-08T14:19:06;8.80;99.90
31391;DHT22;18022;45.492;11.548;2024-03-08T14:21:32;8.80;99.90
31391;DHT22;18022;45.492;11.548;2024-03-08T14:23:59;8.70;99.90
31391;DHT22;18022;45.492;11.548;2024-03-08T14:26:24;8.70;99.90
31391;DHT22;18022;45.492;11.548;2024-03-08T14:28:51;9.00;99.90
31391;DHT22;18022;45.492;11.548;2024-03-08T14:31:22;9.00;99.90
31391;DHT22;18022;45.492;11.548;2024-03-08T14:33:51;9.00;99.90
31391;DHT22;18022;45.492;11.548;2024-03-08T14:36:18;9.10;99.90
31391;DHT22;18022;45.492;11.548;2024-03-08T14:38:46;9.20;99.90
31391;DHT22;18022;45.492;11.548;2024-03-08T14:41:13;9.20;99.90
31391;DHT22;18022;45.492;11.548;2024-03-08T14:43:43;9.10;99.90
31391;DHT22;18022;45.492;11.548;2024-03-08T14:46:13;9.00;99.90
31391;DHT22;18022;45.492;11.548;2024-03-08T14:48:55;9.10;99.90
31391;DHT22;18022;45.492;11.548;2024-03-08T14:51:22;9.10;99.90
31391;DHT22;18022;45.492;11.548;2024-03-08T14:53:53;9.10;99.90
31391;DHT22;18022;45.492;11.548;2024-03-08T14:56:20;9.10;99.90
31391;DHT22;18022;45.492;11.548;2024-03-08T14:58:46;9.20;99.90
31391;DHT22;18022;45.492;11.548;2024-03-08T15:01:15;9.20;99.90
31391;DHT22;18022;45.492;11.548;2024-03-08T15:03:41;9.00;99.90
31391;DHT22;18022;45.492;11.548;2024-03-08T15:06:08;9.00;99.90
31391;DHT22;18022;45.492;11.548;2024-03-08T15:08:38;9.10;99.90
31391;DHT22;18022;45.492;11.548;2024-03-08T15:11:04;9.10;99.90
31391;DHT22;18022;45.492;11.548;2024-03-08T15:13:31;9.10;99.90
31391;DHT22;18022;45.492;11.548;2024-03-08T15:16:06;9.00;99.90
31391;DHT22;18022;45.492;11.548;2024-03-08T15:18:32;8.90;99.90
31391;DHT22;18022;45.492;11.548;2024-03-08T15:21:04;9.00;99.90
31391;DHT22;18022;45.492;11.548;2024-03-08T15:23:35;9.00;99.90
31391;DHT22;18022;45.492;11.548;2024-03-08T15:26:02;8.90;99.90
31391;DHT22;18022;45.492;11.548;2024-03-08T15:28:29;8.90;99.90
31391;DHT22;18022;45.492;11.548;2024-03-08T15:31:06;8.90;99.90
31391;DHT22;18022;45.492;11.548;2024-03-08T15:33:36;8.80;99.90
31391;DHT22;18022;45.492;11.548;2024-03-08T15:36:08;8.90;99.90
31391;DHT22;18022;45.492;11.548;2024-03-08T15:38:36;9.00;99.90